Time;durP1;ratioP1;P1;durP2;ratioP2;P2;SDS_P1;SDS_P2;PMS_P1;PMS_P2;Temp;Humidity;BMP_temperature;BMP_pressure;BME280_temperature;BME280_humidity;BME280_pressure;Samples;Min_cycle;Max_cycle;Signal;HPM_P1;HPM_P2
2021/10/19 00:01:12;;;;;;;16.05;12.73;;;;;;;8.81;100.00;99662.54;1784942;79;21065;-60
2021/10/19 00:03:44;;;;;;;18.62;13.05;;;;;;;8.82;100.00;99663.42;1701627;83;21503;-58
2021/10/19 00:06:16;;;;;;;21.95;12.70;;;;;;;8.82;100.00;99659.47;1730352;82;21506;-58
2021/10/19 00:08:53;;;;;;;;;;;;;;;8.84;100.00;99663.00;1732894;82;21047;-58
2021/10/19 00:11:24;;;;;;;19.55;12.88;;;;;;;8.84;100.00;99657.30;1714274;82;20452;-58
2021/10/19 00:13:55;;;;;;;;;;;;;;;8.84;100.00;99656.42;1736691;80;21455;-58
2021/10/19 00:16:28;;;;;;;17.35;12.40;;;;;;;8.83;100.00;99661.23;1740483;80;20424;-58
2021/10/19 00:19:13;;;;;;;17.42;12.40;;;;;;;8.80;100.00;99662.09;1743452;80;21150;-58
2021/10/19 00:21:38;;;;;;;16.93;13.43;;;;;;;8.79;100.00;99664.27;1761233;80;21443;-58
2021/10/19 00:24:10;;;;;;;18.27;13.05;;;;;;;8.77;100.00;99660.75;1758392;80;21028;-58
2021/10/19 00:26:52;;;;;;;20.55;12.82;;;;;;;8.73;100.00;99667.28;1760608;80;21439;-59
2021/10/19 00:29:22;;;;;;;20.45;13.20;;;;;;;8.71;100.00;99671.21;1758209;80;21487;-58
2021/10/19 00:31:56;;;;;;;16.85;13.15;;;;;;;8.72;100.00;99673.41;1733072;82;21740;-59
2021/10/19 00:34:38;;;;;;;17.70;12.90;;;;;;;8.69;100.00;99674.69;1739774;81;28533;-59
2021/10/19 00:37:07;;;;;;;20.62;13.72;;;;;;;8.66;100.00;99679.49;1727522;81;21437;-58
2021/10/19 00:39:48;;;;;;;17.95;12.82;;;;;;;8.64;100.00;99682.97;1745610;82;21444;-59
2021/10/19 00:42:29;;;;;;;20.88;14.10;;;;;;;8.61;100.00;99684.25;1723488;81;21454;-58
2021/10/19 00:44:55;;;;;;;18.92;12.98;;;;;;;8.58;100.00;99686.42;1704644;82;21351;-59
2021/10/19 00:47:23;;;;;;;19.37;13.15;;;;;;;8.54;100.00;99687.69;1757423;80;20861;-59
2021/10/19 00:49:54;;;;;;;17.75;13.20;;;;;;;8.53;100.00;99687.24;1736605;81;21609;-58
2021/10/19 00:52:31;;;;;;;17.57;13.65;;;;;;;8.53;100.00;99692.06;1744039;80;21464;-59
2021/10/19 00:55:03;;;;;;;19.52;13.53;;;;;;;8.53;100.00;99696.44;1735630;81;21419;-59
2021/10/19 00:57:38;;;;;;;19.23;14.50;;;;;;;8.51;100.00;99691.13;1749669;80;21414;-58
2021/10/19 01:00:14;;;;;;;21.05;14.50;;;;;;;8.48;100.00;99693.30;1728269;82;21521;-58
2021/10/19 01:02:50;;;;;;;20.17;14.40;;;;;;;8.44;100.00;99687.99;1728761;81;20945;-58
2021/10/19 01:05:24;;;;;;;19.85;14.85;;;;;;;8.42;100.00;99691.03;1727627;81;21460;-58
2021/10/19 01:08:01;;;;;;;22.13;15.28;;;;;;;8.39;100.00;99693.20;1728996;81;21017;-58
2021/10/19 01:10:30;;;;;;;20.35;14.13;;;;;;;8.40;100.00;99693.65;1737653;80;21118;-58
2021/10/19 01:13:02;;;;;;;20.27;14.75;;;;;;;8.42;100.00;99689.72;1753326;81;21456;-59
2021/10/19 01:15:40;;;;;;;19.55;14.25;;;;;;;8.41;100.00;99691.47;1734721;81;21579;-59
2021/10/19 01:18:15;;;;;;;19.05;14.38;;;;;;;8.39;100.00;99689.25;1708132;82;21021;-59
2021/10/19 01:20:51;;;;;;;19.02;14.07;;;;;;;8.40;100.00;99698.02;1754759;81;21669;-59
2021/10/19 01:23:26;;;;;;;17.47;13.80;;;;;;;8.40;100.00;99701.97;1754497;81;21425;-59
2021/10/19 01:26:03;;;;;;;20.50;13.53;;;;;;;8.40;100.00;99700.22;1756374;80;20863;-60
2021/10/19 01:28:40;;;;;;;18.32;13.88;;;;;;;8.41;100.00;99705.05;1759387;80;20907;-59
2021/10/19 01:31:11;;;;;;;22.05;14.90;;;;;;;8.44;100.00;99705.08;1753973;80;21390;-59
2021/10/19 01:33:40;;;;;;;19.55;13.80;;;;;;;8.44;100.00;99701.14;1754831;80;20930;-59
2021/10/19 01:36:09;;;;;;;19.57;14.13;;;;;;;8.44;100.00;99703.33;1759065;80;21389;-59
2021/10/19 01:38:38;;;;;;;21.20;14.78;;;;;;;8.44;100.00;99703.33;1758856;81;20907;-62
2021/10/19 01:41:09;;;;;;;22.20;14.78;;;;;;;8.44;100.00;99695.87;1752325;81;21483;-60
2021/10/19 01:43:40;;;;;;;19.00;14.00;;;;;;;8.43;100.00;99698.06;1754249;81;20914;-60
2021/10/19 01:46:14;;;;;;;17.65;13.65;;;;;;;8.43;100.00;99698.06;1757382;80;21031;-60
2021/10/19 01:48:46;;;;;;;21.10;15.08;;;;;;;8.45;100.00;99694.58;1752930;80;22000;-60
2021/10/19 01:51:21;;;;;;;21.35;13.75;;;;;;;8.47;100.00;99700.73;1753773;81;20893;-59
2021/10/19 01:53:50;;;;;;;21.80;14.63;;;;;;;8.47;100.00;99703.80;1750656;81;21414;-59
2021/10/19 01:56:25;;;;;;;21.70;15.40;;;;;;;8.47;100.00;99709.06;1759356;81;20906;-60
2021/10/19 01:58:51;;;;;;;19.48;14.85;;;;;;;8.46;100.00;99707.30;1749545;80;21453;-60
2021/10/19 02:01:25;;;;;;;20.82;14.13;;;;;;;8.42;100.00;99706.38;1747660;81;21420;-61
2021/10/19 02:04:07;;;;;;;19.70;14.85;;;;;;;8.44;100.00;99709.02;1752714;81;21866;-60
2021/10/19 02:06:40;;;;;;;19.75;14.60;;;;;;;8.46;100.00;99708.61;1752098;81;21461;-60
2021/10/19 02:09:07;;;;;;;18.15;13.75;;;;;;;8.48;100.00;99713.45;1757523;81;21480;-60
2021/10/19 02:11:36;;;;;;;19.20;14.50;;;;;;;8.48;100.00;99710.39;1754795;81;20958;-59
2021/10/19 02:14:19;;;;;;;21.05;14.65;;;;;;;8.47;100.00;99714.31;1744777;81;21420;-60
2021/10/19 02:16:52;;;;;;;20.95;14.03;;;;;;;8.44;100.00;99713.84;1749413;81;21492;-61
2021/10/19 02:19:25;;;;;;;20.68;15.50;;;;;;;8.45;100.00;99716.05;1756419;81;20947;-59
2021/10/19 02:21:50;;;;;;;21.23;14.95;;;;;;;8.45;100.00;99716.92;1757926;81;21481;-59
2021/10/19 02:24:26;;;;;;;20.57;15.30;;;;;;;8.46;100.00;99717.81;1761923;80;21010;-59
2021/10/19 02:26:55;;;;;;;18.75;14.75;;;;;;;8.46;100.00;99723.06;1761969;81;21414;-61
2021/10/19 02:29:23;;;;;;;18.42;14.95;;;;;;;8.42;100.00;99722.16;1761924;80;20867;-59
2021/10/19 02:31:51;;;;;;;18.32;14.25;;;;;;;8.41;100.00;99735.28;1757239;81;21001;-60
2021/10/19 02:34:21;;;;;;;20.85;14.93;;;;;;;8.38;100.00;99732.61;1756367;81;20920;-59
2021/10/19 02:36:49;;;;;;;22.55;14.47;;;;;;;8.36;100.00;99733.03;1756302;81;20917;-60
2021/10/19 02:39:17;;;;;;;20.23;14.65;;;;;;;8.34;100.00;99729.50;1756266;81;21543;-60
2021/10/19 02:41:45;;;;;;;20.50;14.50;;;;;;;8.33;100.00;99732.56;1760671;80;20879;-59
2021/10/19 02:44:12;;;;;;;20.97;15.08;;;;;;;8.30;100.00;99727.66;1756946;81;20925;-59
2021/10/19 02:46:40;;;;;;;22.32;15.13;;;;;;;8.26;100.00;99731.12;1756349;81;20958;-59
2021/10/19 02:49:09;;;;;;;18.77;14.55;;;;;;;8.24;100.00;99739.41;1756076;81;21490;-59
2021/10/19 02:51:36;;;;;;;22.48;14.80;;;;;;;8.20;100.00;99734.13;1757005;81;21008;-60
2021/10/19 02:54:05;;;;;;;19.30;14.03;;;;;;;8.17;100.00;99738.02;1756502;81;20846;-60
2021/10/19 02:56:33;;;;;;;21.27;14.83;;;;;;;8.15;100.00;99737.13;1731401;81;20981;-60
2021/10/19 02:59:01;;;;;;;21.42;14.93;;;;;;;8.17;100.00;99737.14;1756498;81;20960;-59
2021/10/19 03:01:34;;;;;;;19.32;14.75;;;;;;;8.17;100.00;99743.72;1756804;81;21421;-59
2021/10/19 03:04:04;;;;;;;20.60;14.43;;;;;;;8.16;100.00;99740.20;1754702;81;21113;-61
2021/10/19 03:06:33;;;;;;;21.68;14.40;;;;;;;8.14;100.00;99741.93;1732233;82;21449;-61
2021/10/19 03:09:04;;;;;;;21.37;14.75;;;;;;;8.15;100.00;99747.64;1744139;81;21430;-59
2021/10/19 03:11:34;;;;;;;18.73;14.07;;;;;;;8.13;100.00;99742.80;1758682;80;21461;-59
2021/10/19 03:14:04;;;;;;;23.07;14.87;;;;;;;8.14;100.00;99748.50;1750355;81;20909;-59
2021/10/19 03:16:33;;;;;;;19.12;15.30;;;;;;;8.16;100.00;99754.66;1722454;82;21939;-59
2021/10/19 03:19:05;;;;;;;20.02;15.38;;;;;;;8.17;100.00;99757.73;1722347;82;20926;-60
2021/10/19 03:21:38;;;;;;;19.37;14.47;;;;;;;8.16;100.00;99757.28;1722392;83;20902;-60
2021/10/19 03:24:09;;;;;;;20.17;14.75;;;;;;;8.15;100.00;99761.20;1722789;82;20947;-61
2021/10/19 03:26:37;;;;;;;21.12;15.03;;;;;;;8.15;100.00;99762.09;1752187;80;20918;-59
2021/10/19 03:29:05;;;;;;;18.40;13.65;;;;;;;8.15;100.00;99768.66;1752315;82;21219;-62
2021/10/19 03:31:36;;;;;;;21.95;15.32;;;;;;;8.17;100.00;99776.56;1752166;80;20934;-64
2021/10/19 03:34:04;;;;;;;21.37;16.00;;;;;;;8.18;100.00;99773.07;1752103;80;20967;-60
2021/10/19 03:36:34;;;;;;;17.87;13.78;;;;;;;8.18;100.00;99773.07;1738689;81;20905;-60
2021/10/19 03:39:03;;;;;;;21.00;15.03;;;;;;;8.16;100.00;99776.99;1736952;81;21649;-60
2021/10/19 03:41:31;;;;;;;20.57;15.15;;;;;;;8.15;100.00;99781.80;1736665;81;21468;-60
2021/10/19 03:43:59;;;;;;;21.73;14.58;;;;;;;8.14;100.00;99781.34;1736986;81;20912;-59
2021/10/19 03:46:26;;;;;;;20.70;14.65;;;;;;;8.11;100.00;99782.62;1751855;80;20899;-60
2021/10/19 03:48:54;;;;;;;21.40;14.10;;;;;;;8.11;100.00;99786.56;1752420;80;21488;-60
2021/10/19 03:51:22;;;;;;;24.02;14.93;;;;;;;8.10;100.00;99786.11;1747983;81;21006;-59
2021/10/19 03:53:51;;;;;;;21.97;15.80;;;;;;;8.09;100.00;99785.66;1750024;82;21219;-59
2021/10/19 03:56:19;;;;;;;19.75;14.55;;;;;;;8.05;100.00;99791.73;1743792;81;21029;-59
2021/10/19 03:58:48;;;;;;;20.45;15.10;;;;;;;8.03;100.00;99794.73;1750423;80;21447;-59
2021/10/19 04:01:16;;;;;;;20.20;14.73;;;;;;;8.00;100.00;99796.00;1752220;80;21022;-58
2021/10/19 04:03:44;;;;;;;20.82;14.07;;;;;;;7.97;100.00;99805.59;1746531;81;20909;-59
2021/10/19 04:06:12;;;;;;;21.20;14.93;;;;;;;7.91;100.00;99807.70;1745422;81;21114;-59
2021/10/19 04:08:41;;;;;;;20.25;14.93;;;;;;;7.90;100.00;99809.87;1736754;81;21418;-59
2021/10/19 04:11:10;;;;;;;21.45;15.25;;;;;;;7.86;100.00;99818.13;1746726;80;20939;-60
2021/10/19 04:13:39;;;;;;;18.10;14.45;;;;;;;7.84;100.00;99808.46;1752203;80;21454;-59
2021/10/19 04:16:08;;;;;;;20.20;14.50;;;;;;;7.80;100.00;99815.41;1752209;81;20943;-59
2021/10/19 04:18:38;;;;;;;20.08;14.55;;;;;;;7.78;100.00;99822.39;1752212;82;21423;-58
2021/10/19 04:21:07;;;;;;;18.32;14.23;;;;;;;7.77;100.00;99820.61;1752450;82;20832;-58
2021/10/19 04:23:35;;;;;;;19.52;14.87;;;;;;;7.80;100.00;99817.16;1740480;81;21404;-59
2021/10/19 04:26:04;;;;;;;20.72;15.43;;;;;;;7.81;100.00;99822.86;1736985;81;20923;-58
2021/10/19 04:28:33;;;;;;;24.75;14.53;;;;;;;7.81;100.00;99823.74;1736789;81;21442;-59
2021/10/19 04:31:00;;;;;;;19.27;14.58;;;;;;;7.79;100.00;99822.84;1737013;81;21097;-59
2021/10/19 04:33:28;;;;;;;19.85;14.63;;;;;;;7.78;100.00;99824.13;1736587;81;21402;-57
2021/10/19 04:35:56;;;;;;;22.17;15.03;;;;;;;7.75;100.00;99824.96;1737320;81;21132;-58
2021/10/19 04:38:24;;;;;;;19.55;14.50;;;;;;;7.75;100.00;99834.59;1737125;82;20943;-58
2021/10/19 04:40:52;;;;;;;19.87;15.03;;;;;;;7.74;100.00;99835.02;1732487;81;20908;-58
2021/10/19 04:43:19;;;;;;;19.40;14.28;;;;;;;7.72;100.00;99833.22;1709240;84;21069;-58
2021/10/19 04:45:47;;;;;;;19.52;15.32;;;;;;;7.71;100.00;99835.39;1709186;84;20962;-58
2021/10/19 04:48:17;;;;;;;19.55;15.10;;;;;;;7.69;100.00;99843.25;1729678;82;21458;-58
2021/10/19 04:50:44;;;;;;;19.50;14.87;;;;;;;7.67;100.00;99846.28;1748494;82;20951;-58
2021/10/19 04:53:13;;;;;;;18.15;13.65;;;;;;;7.65;100.00;99845.80;1765151;81;21459;-58
2021/10/19 04:55:41;;;;;;;20.20;14.53;;;;;;;7.64;100.00;99842.72;1760347;80;21719;-59
2021/10/19 04:58:09;;;;;;;24.32;13.75;;;;;;;7.65;100.00;99851.05;1760517;80;20839;-59
2021/10/19 05:00:38;;;;;;;17.60;13.60;;;;;;;7.65;100.00;99858.50;1760497;81;20930;-60
2021/10/19 05:03:07;;;;;;;17.80;13.88;;;;;;;7.64;100.00;99859.36;1709476;82;21510;-58
2021/10/19 05:05:36;;;;;;;20.95;14.45;;;;;;;7.63;100.00;99858.02;1724716;83;20919;-59
2021/10/19 05:08:05;;;;;;;18.62;14.13;;;;;;;7.63;100.00;99866.78;1700743;82;21172;-59
2021/10/19 05:10:33;;;;;;;19.02;13.68;;;;;;;7.65;100.00;99868.12;1734159;81;21482;-59
2021/10/19 05:13:01;;;;;;;17.65;13.15;;;;;;;7.65;100.00;99866.80;1747635;81;20944;-58
2021/10/19 05:15:28;;;;;;;17.40;12.98;;;;;;;7.69;100.00;99875.19;1753810;81;20939;-59
2021/10/19 05:17:57;;;;;;;16.62;13.13;;;;;;;7.71;100.00;99876.98;1753876;81;21437;-59
2021/10/19 05:20:25;;;;;;;23.75;15.40;;;;;;;7.72;100.00;99881.38;1754107;81;21078;-59
2021/10/19 05:22:52;;;;;;;19.98;15.05;;;;;;;7.75;100.00;99884.48;1732266;81;20906;-58
2021/10/19 05:25:20;;;;;;;17.23;13.78;;;;;;;7.77;100.00;99889.33;1755918;81;20907;-58
2021/10/19 05:27:48;;;;;;;20.32;13.72;;;;;;;7.78;100.00;99888.05;1755603;81;20844;-59
2021/10/19 05:30:17;;;;;;;20.60;13.83;;;;;;;7.79;100.00;99888.50;1746282;82;20908;-59
2021/10/19 05:32:46;;;;;;;21.62;13.90;;;;;;;7.84;100.00;99895.14;1746059;82;21688;-59
2021/10/19 05:35:14;;;;;;;20.48;13.40;;;;;;;7.86;100.00;99901.30;1746226;82;20876;-59
2021/10/19 05:37:42;;;;;;;18.92;13.85;;;;;;;7.85;100.00;99904.36;1746042;82;21351;-59
2021/10/19 05:40:10;;;;;;;17.57;13.35;;;;;;;7.87;100.00;99904.38;1746063;82;21423;-58
2021/10/19 05:42:38;;;;;;;17.27;13.48;;;;;;;7.88;100.00;99907.46;1746341;82;20951;-58
2021/10/19 05:45:06;;;;;;;18.57;12.82;;;;;;;7.89;100.00;99902.66;1746282;82;21726;-59
2021/10/19 05:47:34;;;;;;;16.67;12.82;;;;;;;7.90;100.00;99909.69;1745932;82;20900;-58
2021/10/19 05:50:01;;;;;;;18.50;13.85;;;;;;;7.96;100.00;99912.41;1746258;82;21006;-58
2021/10/19 05:52:29;;;;;;;18.95;13.30;;;;;;;7.99;100.00;99912.89;1746274;82;20899;-58
2021/10/19 05:54:57;;;;;;;17.98;13.75;;;;;;;8.01;100.00;99923.88;1746091;82;20927;-58
2021/10/19 05:57:24;;;;;;;20.75;13.45;;;;;;;8.05;100.00;99927.48;1745583;82;21836;-58
2021/10/19 05:59:52;;;;;;;15.78;12.65;;;;;;;8.08;100.00;99928.84;1719863;83;20860;-58
2021/10/19 06:02:19;;;;;;;19.73;13.20;;;;;;;8.08;100.00;99932.78;1719773;83;20916;-58
2021/10/19 06:04:47;;;;;;;17.23;12.63;;;;;;;8.09;100.00;99941.12;1719410;83;20883;-59
2021/10/19 06:07:14;;;;;;;18.67;13.78;;;;;;;8.12;100.00;99938.11;1719726;83;20939;-59
2021/10/19 06:09:41;;;;;;;19.37;14.55;;;;;;;8.13;100.00;99945.56;1719505;83;21748;-58
2021/10/19 06:12:09;;;;;;;19.30;14.98;;;;;;;8.13;100.00;99945.56;1719678;83;20932;-58
2021/10/19 06:14:37;;;;;;;17.73;13.25;;;;;;;8.11;100.00;99944.66;1719116;83;20951;-59
2021/10/19 06:17:06;;;;;;;18.05;13.93;;;;;;;8.12;100.00;99945.11;1727157;83;20939;-59
2021/10/19 06:19:34;;;;;;;20.05;14.03;;;;;;;8.12;100.00;99948.63;1727257;83;21557;-59
2021/10/19 06:22:04;;;;;;;17.82;13.68;;;;;;;8.15;100.00;99948.67;1719493;83;21082;-58
2021/10/19 06:24:33;;;;;;;18.30;13.28;;;;;;;8.20;100.00;99951.38;1727195;83;21075;-58
2021/10/19 06:27:00;;;;;;;19.20;14.38;;;;;;;8.23;100.00;99950.11;1727452;82;20903;-59
2021/10/19 06:29:29;;;;;;;20.17;14.60;;;;;;;8.28;100.00;99956.32;1723262;83;20904;-58
2021/10/19 06:31:57;;;;;;;19.32;13.48;;;;;;;8.32;100.00;99957.25;1719601;81;20927;-60
2021/10/19 06:34:24;;;;;;;21.17;13.53;;;;;;;8.37;100.00;99953.87;1738316;81;21054;-59
2021/10/19 06:36:53;;;;;;;18.35;13.65;;;;;;;8.42;100.00;99952.19;1757420;81;20847;-59
2021/10/19 06:39:21;;;;;;;18.20;12.80;;;;;;;8.51;100.00;99957.63;1741279;81;21451;-60
2021/10/19 06:41:48;;;;;;;17.42;13.62;;;;;;;8.62;100.00;99952.52;1736818;82;20942;-58
2021/10/19 06:44:16;;;;;;;17.70;13.45;;;;;;;8.72;100.00;99955.73;1736614;82;21485;-59
2021/10/19 06:46:44;;;;;;;16.75;12.90;;;;;;;8.82;100.00;99954.11;1736611;82;21095;-58
2021/10/19 06:49:13;;;;;;;20.23;13.32;;;;;;;8.92;100.00;99953.37;1736517;82;20935;-60
2021/10/19 06:51:42;;;;;;;16.50;13.08;;;;;;;9.02;100.00;99955.72;1754328;81;20863;-61
2021/10/19 06:54:09;;;;;;;15.32;12.15;;;;;;;9.12;100.00;99962.86;1757183;81;20947;-60
2021/10/19 06:56:36;;;;;;;15.72;11.60;;;;;;;9.21;100.00;99968.24;1754117;81;21469;-57
2021/10/19 06:59:04;;;;;;;16.25;12.43;;;;;;;9.27;100.00;99964.37;1739220;81;21052;-58
2021/10/19 07:01:31;;;;;;;16.77;11.70;;;;;;;9.31;100.00;99965.29;1767129;81;20917;-58
2021/10/19 07:03:58;;;;;;;17.42;11.70;;;;;;;9.36;100.00;99967.55;1766781;81;20898;-59
2021/10/19 07:06:26;;;;;;;15.93;11.25;;;;;;;9.39;100.00;99967.58;1755545;81;20926;-58
2021/10/19 07:08:54;;;;;;;13.93;10.65;;;;;;;9.45;100.00;99964.58;1741142;81;21434;-58
2021/10/19 07:11:26;;;;;;;14.40;9.70;;;;;;;9.50;100.00;99964.66;1741390;82;21088;-59
2021/10/19 07:13:51;;;;;;;12.73;8.98;;;;;;;9.52;100.00;99970.83;1746790;81;20887;-59
2021/10/19 07:16:18;;;;;;;18.30;12.23;;;;;;;9.55;100.00;99968.23;1754955;81;20896;-59
2021/10/19 07:18:46;;;;;;;20.57;13.45;;;;;;;9.58;100.00;99969.58;1754893;81;20956;-59
2021/10/19 07:21:14;;;;;;;14.50;10.13;;;;;;;9.62;100.00;99967.86;1756610;81;21482;-58
2021/10/19 07:23:43;;;;;;;10.20;8.15;;;;;;;9.66;100.00;99966.59;1755014;81;21050;-59
2021/10/19 07:26:10;;;;;;;16.17;9.33;;;;;;;9.74;100.00;99967.98;1755120;81;21529;-59
2021/10/19 07:28:38;;;;;;;13.95;9.23;;;;;;;9.80;100.00;99961.46;1736701;81;21072;-59
2021/10/19 07:31:06;;;;;;;14.40;9.08;;;;;;;9.89;100.00;99959.34;1736866;81;20938;-59
2021/10/19 07:33:35;;;;;;;13.80;9.18;;;;;;;9.99;100.00;99967.39;1736727;81;20913;-58
2021/10/19 07:36:04;;;;;;;13.10;8.95;;;;;;;10.09;100.00;99961.77;1736850;81;21790;-59
2021/10/19 07:38:31;;;;;;;11.65;8.38;;;;;;;10.16;100.00;99957.42;1736514;81;20886;-59
2021/10/19 07:41:00;;;;;;;12.23;8.00;;;;;;;10.24;100.00;99957.97;1736738;81;20842;-58
2021/10/19 07:43:28;;;;;;;11.85;7.50;;;;;;;10.34;100.00;99961.12;1736594;81;21455;-58
2021/10/19 07:45:55;;;;;;;9.18;7.28;;;;;;;10.43;100.00;99964.30;1736916;81;20945;-58
2021/10/19 07:48:23;;;;;;;13.78;8.38;;;;;;;10.52;100.00;99968.75;1736632;81;21109;-58
2021/10/19 07:50:50;;;;;;;9.98;7.15;;;;;;;10.61;100.00;99965.73;1736790;81;20890;-58
2021/10/19 07:53:19;;;;;;;12.53;8.48;;;;;;;10.73;100.00;99964.94;1736708;81;21397;-59
2021/10/19 07:55:47;;;;;;;15.98;7.65;;;;;;;10.83;100.00;99963.23;1736854;81;20970;-58
2021/10/19 07:58:15;;;;;;;11.38;6.87;;;;;;;10.93;100.00;99962.00;1736739;81;20858;-59
2021/10/19 08:00:42;;;;;;;12.03;8.00;;;;;;;11.04;100.00;99973.94;1707467;83;21092;-58
2021/10/19 08:03:11;;;;;;;11.90;8.60;;;;;;;11.15;100.00;99976.63;1707156;83;21067;-58
2021/10/19 08:05:41;;;;;;;14.55;7.20;;;;;;;11.22;100.00;99975.34;1707424;83;20961;-59
2021/10/19 08:08:13;;;;;;;10.10;6.72;;;;;;;11.31;100.00;99975.38;1707137;83;20905;-59
2021/10/19 08:10:41;;;;;;;;;;;;;;;11.44;100.00;99976.78;1710105;83;21564;-60
2021/10/19 08:13:10;;;;;;;8.28;6.00;;;;;;;11.55;100.00;99976.38;1707216;83;22018;-59
2021/10/19 08:15:39;;;;;;;11.38;6.85;;;;;;;11.66;100.00;99975.96;1706728;82;21415;-59
2021/10/19 08:18:08;;;;;;;8.43;6.55;;;;;;;11.75;100.00;99969.81;1705709;84;21362;-59
2021/10/19 08:20:38;;;;;;;8.23;6.33;;;;;;;11.83;100.00;99979.59;1705713;84;20908;-58
2021/10/19 08:23:06;;;;;;;10.38;7.15;;;;;;;11.89;100.00;99972.11;1706081;84;20887;-59
2021/10/19 08:25:35;;;;;;;9.45;7.08;;;;;;;11.95;100.00;99974.32;1705834;84;21150;-59
2021/10/19 08:28:04;;;;;;;13.48;6.58;;;;;;;12.03;100.00;99978.30;1705960;84;20947;-58
2021/10/19 08:30:31;;;;;;;9.13;6.35;;;;;;;12.09;100.00;99974.34;1743277;81;20859;-60
2021/10/19 08:32:59;;;;;;;10.40;5.95;;;;;;;12.14;100.00;99981.83;1733495;81;21474;-58
2021/10/19 08:35:26;;;;;;;7.22;4.83;;;;;;;12.18;100.00;99980.06;1764927;81;20902;-59
2021/10/19 08:37:54;;;;;;;9.93;6.25;;;;;;;12.25;100.00;99974.78;1733516;81;22951;-59
2021/10/19 08:40:22;;;;;;;7.95;5.42;;;;;;;12.36;100.00;99980.10;1752138;81;21439;-59
2021/10/19 08:42:55;;;;;;;9.23;5.33;;;;;;;12.46;100.00;99975.25;1750125;81;20935;-58
2021/10/19 08:45:20;;;;;;;7.25;5.05;;;;;;;12.52;99.06;99979.21;1764143;81;21002;-58
2021/10/19 08:47:48;;;;;;;6.53;4.83;;;;;;;12.65;97.51;99987.14;1760627;80;21440;-58
2021/10/19 08:50:19;;;;;;;8.20;4.58;;;;;;;12.76;96.18;99976.09;1760200;80;21047;-59
2021/10/19 08:52:47;;;;;;;6.00;4.42;;;;;;;12.88;95.39;99986.69;1760309;81;20965;-59
2021/10/19 08:55:14;;;;;;;6.90;4.62;;;;;;;13.01;93.61;99990.19;1760151;81;21045;-59
2021/10/19 08:57:42;;;;;;;9.00;5.47;;;;;;;13.14;92.31;99987.94;1746233;81;20895;-60
2021/10/19 09:00:11;;;;;;;6.95;5.22;;;;;;;13.26;91.07;99993.27;1730478;81;20859;-62
2021/10/19 09:02:43;;;;;;;7.92;6.05;;;;;;;13.38;90.11;99988.36;1727652;82;21792;-60
2021/10/19 09:05:26;;;;;;;11.97;5.83;;;;;;;13.48;88.47;99987.42;1728741;81;20965;-59
2021/10/19 09:08:06;;;;;;;10.13;5.90;;;;;;;13.58;86.36;99986.94;1739062;81;20937;-59
2021/10/19 09:10:35;;;;;;;7.62;5.10;;;;;;;13.64;83.43;99985.14;1728942;82;20948;-58
2021/10/19 09:13:05;;;;;;;11.57;5.10;;;;;;;13.71;81.53;99988.63;1750795;81;20941;-58
2021/10/19 09:15:37;;;;;;;6.80;4.33;;;;;;;13.73;78.17;99977.61;1734071;81;21085;-57
2021/10/19 09:18:12;;;;;;;6.72;4.03;;;;;;;13.76;76.07;99981.56;1698376;83;20880;-58
2021/10/19 09:20:46;;;;;;;8.33;3.80;;;;;;;13.79;74.15;99977.57;1713748;83;20919;-58
2021/10/19 09:23:13;;;;;;;4.72;3.10;;;;;;;13.82;72.52;99977.55;1722405;83;20935;-57
2021/10/19 09:25:45;;;;;;;5.42;3.37;;;;;;;13.90;72.23;99974.85;1722851;83;21383;-57
2021/10/19 09:28:15;;;;;;;7.65;3.67;;;;;;;14.02;71.63;99978.75;1730604;82;21066;-58
2021/10/19 09:30:51;;;;;;;10.35;3.72;;;;;;;14.15;70.34;99969.80;1696550;83;21434;-57
2021/10/19 09:33:20;;;;;;;5.90;2.75;;;;;;;14.23;67.89;99965.35;1714287;83;21043;-59
2021/10/19 09:35:50;;;;;;;5.70;3.20;;;;;;;14.32;65.55;99968.38;1720690;83;20959;-59
2021/10/19 09:38:17;;;;;;;7.45;3.55;;;;;;;14.37;64.36;99966.11;1721027;83;21033;-59
2021/10/19 09:40:47;;;;;;;7.12;3.47;;;;;;;14.45;63.40;99971.39;1720920;83;21716;-58
2021/10/19 09:43:21;;;;;;;6.17;3.50;;;;;;;14.49;62.45;99962.06;1723240;82;20903;-59
2021/10/19 09:45:52;;;;;;;6.85;3.55;;;;;;;14.56;61.72;99954.91;1730177;81;20902;-59
2021/10/19 09:48:29;;;;;;;7.80;4.12;;;;;;;14.63;61.14;99957.94;1714344;83;20948;-58
2021/10/19 09:50:56;;;;;;;4.87;3.83;;;;;;;14.75;60.33;99955.64;1730636;82;20874;-59
2021/10/19 09:53:25;;;;;;;5.35;3.52;;;;;;;14.88;59.41;99959.05;1714620;83;21077;-58
2021/10/19 09:55:55;;;;;;;7.80;4.15;;;;;;;15.01;58.41;99956.24;1730381;81;20935;-58
2021/10/19 09:58:23;;;;;;;6.65;4.92;;;;;;;15.11;57.86;99953.03;1699733;83;21632;-59
2021/10/19 10:00:51;;;;;;;6.28;4.75;;;;;;;15.19;57.15;99959.16;1716422;81;21506;-58
2021/10/19 10:03:18;;;;;;;8.35;4.40;;;;;;;15.29;56.98;99958.16;1729635;81;21576;-59
2021/10/19 10:05:47;;;;;;;6.78;3.70;;;;;;;15.37;56.59;99954.06;1686463;84;21709;-59
2021/10/19 10:08:20;;;;;;;9.80;5.47;;;;;;;15.41;55.76;99950.47;1706501;83;21487;-59
2021/10/19 10:10:55;;;;;;;7.85;4.72;;;;;;;15.45;55.22;99950.86;1723402;83;20939;-58
2021/10/19 10:13:22;;;;;;;8.40;4.83;;;;;;;15.50;54.61;99949.02;1730225;82;20973;-58
2021/10/19 10:15:50;;;;;;;7.62;5.53;;;;;;;15.58;54.43;99944.51;1730475;80;21433;-62
2021/10/19 10:18:20;;;;;;;9.80;4.90;;;;;;;15.64;54.31;99949.77;1733102;81;21089;-59
2021/10/19 10:20:49;;;;;;;6.58;5.22;;;;;;;15.68;54.01;99946.63;1727560;81;20995;-59
2021/10/19 10:23:25;;;;;;;7.15;5.05;;;;;;;15.69;53.91;99945.27;1733108;81;20939;-60
2021/10/19 10:25:56;;;;;;;6.30;5.28;;;;;;;15.72;54.05;99947.88;1730734;82;20955;-59
2021/10/19 10:28:33;;;;;;;7.15;4.55;;;;;;;15.74;53.36;99943.88;1721392;82;21521;-58
2021/10/19 10:31:05;;;;;;;8.80;5.15;;;;;;;15.70;52.50;99944.37;1721466;82;21104;-58
2021/10/19 10:33:47;;;;;;;9.00;5.03;;;;;;;15.73;52.48;99945.66;1721627;82;21355;-59
2021/10/19 10:36:14;;;;;;;9.98;4.40;;;;;;;15.80;52.41;99943.78;1721317;83;20872;-60
2021/10/19 10:38:57;;;;;;;5.25;3.87;;;;;;;15.89;51.88;99950.30;1697050;82;20915;-59
2021/10/19 10:41:24;;;;;;;6.62;3.95;;;;;;;15.95;51.13;99939.56;1710052;84;21034;-59
2021/10/19 10:43:59;;;;;;;6.65;3.75;;;;;;;16.01;50.17;99936.80;1710053;84;21101;-59
2021/10/19 10:46:28;;;;;;;6.83;3.77;;;;;;;16.02;49.57;99934.56;1710285;84;20899;-59
2021/10/19 10:48:56;;;;;;;7.28;4.08;;;;;;;16.08;49.37;99937.58;1710289;84;21002;-58
2021/10/19 10:51:36;;;;;;;5.47;3.87;;;;;;;16.11;48.90;99936.23;1709999;84;20955;-59
2021/10/19 10:54:03;;;;;;;14.63;4.58;;;;;;;16.13;48.49;99933.55;1710323;84;21394;-59
2021/10/19 10:56:47;;;;;;;14.18;9.08;;;;;;;16.12;48.32;99927.80;1710349;84;21087;-58
2021/10/19 10:59:33;;;;;;;8.23;5.80;;;;;;;16.17;48.36;99926.82;1659982;84;20951;-59
2021/10/19 11:02:10;;;;;;;6.50;4.45;;;;;;;16.29;48.06;99927.06;1710675;83;21443;-59
2021/10/19 11:04:50;;;;;;;7.85;4.90;;;;;;;16.41;47.73;99924.64;1723085;83;20876;-59
2021/10/19 11:07:35;;;;;;;7.35;5.20;;;;;;;16.57;47.18;99919.50;1699010;83;20993;-59
2021/10/19 11:10:15;;;;;;;8.80;4.35;;;;;;;16.73;46.79;99923.67;1699261;83;21461;-58
2021/10/19 11:12:44;;;;;;;7.25;4.80;;;;;;;16.90;46.41;99922.02;1698849;83;21429;-59
2021/10/19 11:15:17;;;;;;;5.67;3.72;;;;;;;17.00;45.93;99923.13;1710947;82;20887;-59
2021/10/19 11:17:50;;;;;;;6.35;3.27;;;;;;;17.07;45.15;99912.38;1698048;84;20916;-59
2021/10/19 11:20:17;;;;;;;;;;;;;;;17.10;44.29;99914.53;1701462;84;20912;-58
2021/10/19 11:22:45;;;;;;;6.87;3.05;;;;;;;17.07;43.62;99907.92;1740795;81;21112;-59
2021/10/19 11:25:12;;;;;;;26.68;3.83;;;;;;;17.09;43.56;99910.56;1742122;81;21398;-60
2021/10/19 11:27:42;;;;;;;4.90;3.42;;;;;;;17.20;43.23;99913.42;1736061;81;20911;-61
2021/10/19 11:30:11;;;;;;;5.62;3.30;;;;;;;17.34;43.18;99912.25;1746150;81;21474;-59
2021/10/19 11:32:39;;;;;;;6.70;3.00;;;;;;;17.48;42.90;99904.83;1742480;81;20908;-59
2021/10/19 11:35:09;;;;;;;4.53;2.80;;;;;;;17.62;42.62;99897.42;1735974;82;21086;-60